createdAt,value
2022-11-24T07:26:53.039Z,1.80
2022-11-24T07:28:25.355Z,1.40
2022-11-24T07:29:57.192Z,1.40
2022-11-24T07:31:29.176Z,1.20
2022-11-24T07:33:04.138Z,1.30
2022-11-24T07:34:36.288Z,1.20
2022-11-24T07:36:09.862Z,1.30
2022-11-24T07:37:41.648Z,0.80
2022-11-24T07:39:13.399Z,1.40
2022-11-24T07:40:45.587Z,1.40
2022-11-24T07:42:17.474Z,1.00
2022-11-24T07:43:51.753Z,1.30
2022-11-24T07:45:23.573Z,1.10
2022-11-24T07:46:55.654Z,1.30
2022-11-24T07:48:27.801Z,1.10
2022-11-24T07:49:59.563Z,0.70
2022-11-24T07:51:31.331Z,1.20
2022-11-24T07:53:04.115Z,1.10
2022-11-24T07:54:36.348Z,1.20
2022-11-24T07:56:10.484Z,0.90
2022-11-24T07:57:42.373Z,1.00
2022-11-24T07:59:14.363Z,0.70
2022-11-24T08:00:46.153Z,0.90
2022-11-24T08:02:18.097Z,0.80
2022-11-24T08:03:51.623Z,0.90
2022-11-24T08:05:23.610Z,0.80
2022-11-24T08:06:55.411Z,1.00
2022-11-24T08:08:27.792Z,0.80
2022-11-24T08:09:59.902Z,0.60
2022-11-24T08:11:32.953Z,0.60
2022-11-24T08:13:04.971Z,0.80
2022-11-24T08:14:36.995Z,0.60
2022-11-24T08:16:15.260Z,0.40
2022-11-24T08:17:48.228Z,0.90
2022-11-24T08:19:21.597Z,0.70
2022-11-24T08:20:53.394Z,0.40
2022-11-24T08:22:25.815Z,0.50
2022-11-24T08:23:58.343Z,0.50
2022-11-24T08:25:32.496Z,0.50
2022-11-24T08:27:04.595Z,0.50
2022-11-24T08:28:38.211Z,0.60
2022-11-24T08:30:10.994Z,0.40
2022-11-24T08:31:43.014Z,0.50
2022-11-24T08:33:15.210Z,0.50
2022-11-24T08:34:47.137Z,0.80
2022-11-24T08:36:19.677Z,0.40
2022-11-24T08:37:51.517Z,0.50
2022-11-24T08:39:23.633Z,0.40
2022-11-24T08:41:04.592Z,0.50
2022-11-24T08:42:36.456Z,0.50
2022-11-24T08:44:10.191Z,0.40
2022-11-24T08:45:42.228Z,0.70
2022-11-24T08:47:14.193Z,0.40
2022-11-24T08:48:52.000Z,0.40
2022-11-24T08:50:25.382Z,0.50
2022-11-24T08:51:57.758Z,0.60
2022-11-24T08:53:29.638Z,0.40
2022-11-24T08:55:01.727Z,0.30
2022-11-24T08:56:34.007Z,0.50
2022-11-24T08:58:05.855Z,0.50
2022-11-24T08:59:39.317Z,0.60
2022-11-24T09:01:15.300Z,0.50
2022-11-24T09:02:55.002Z,0.70
2022-11-24T09:04:26.907Z,0.40
2022-11-24T09:05:59.003Z,0.60
2022-11-24T09:07:30.848Z,0.70
2022-11-24T09:09:03.624Z,0.60
2022-11-24T09:10:36.041Z,0.40
2022-11-24T09:12:14.351Z,0.60
2022-11-24T09:13:46.637Z,0.40
2022-11-24T09:15:20.334Z,0.70
2022-11-24T09:16:52.223Z,0.60
2022-11-24T09:18:28.852Z,0.60
2022-11-24T09:20:03.558Z,0.80
2022-11-24T09:21:39.374Z,1.20
2022-11-24T09:23:11.584Z,1.00
2022-11-24T09:24:44.234Z,1.00
2022-11-24T09:26:43.026Z,1.20
2022-11-24T09:28:18.295Z,1.40
2022-11-24T09:29:50.661Z,1.00
2022-11-24T09:31:27.284Z,1.00
2022-11-24T09:32:59.396Z,1.00
2022-11-24T09:34:31.440Z,0.70
2022-11-24T09:36:05.881Z,1.40
2022-11-24T09:37:37.805Z,0.60
2022-11-24T09:39:11.707Z,0.80
2022-11-24T09:40:44.514Z,0.90
2022-11-24T09:42:23.384Z,1.20
2022-11-24T09:44:51.724Z,0.90
2022-11-24T09:46:36.343Z,0.80
2022-11-24T09:48:39.388Z,1.00
2022-11-24T09:50:22.718Z,0.70
2022-11-24T09:51:57.107Z,1.40
2022-11-24T09:53:38.034Z,1.10
2022-11-24T09:55:48.050Z,1.20
2022-11-24T09:57:26.434Z,0.70
2022-11-24T09:59:20.136Z,1.80
2022-11-24T10:00:55.362Z,2.00
2022-11-24T10:02:27.296Z,1.30
2022-11-24T10:04:06.494Z,1.40
2022-11-24T10:05:38.937Z,1.40
2022-11-24T10:07:30.381Z,1.30
2022-11-24T10:09:23.146Z,1.40
2022-11-24T10:11:00.963Z,1.30
2022-11-24T10:13:26.756Z,1.10
2022-11-24T10:15:14.830Z,1.30
2022-11-24T10:17:23.493Z,1.30
2022-11-24T10:19:37.661Z,1.10
2022-11-24T10:21:43.601Z,1.30
2022-11-24T10:24:02.552Z,1.60
2022-11-24T10:25:50.566Z,1.50
2022-11-24T10:27:35.185Z,1.60
2022-11-24T10:29:36.761Z,2.20
2022-11-24T10:31:35.953Z,1.50
2022-11-24T10:33:28.725Z,1.30
2022-11-24T10:35:29.279Z,1.20
2022-11-24T10:37:12.403Z,2.00
2022-11-24T10:39:03.158Z,1.50
2022-11-24T10:40:57.750Z,1.80
2022-11-24T10:42:33.558Z,1.40
2022-11-24T10:44:12.436Z,1.70
2022-11-24T10:45:44.183Z,1.50
2022-11-24T10:47:22.698Z,1.80
2022-11-24T10:49:03.846Z,2.20
2022-11-24T10:50:42.662Z,1.10
2022-11-24T10:52:19.042Z,1.40
2022-11-24T10:53:59.815Z,1.20
2022-11-24T10:56:05.477Z,1.80
2022-11-24T10:57:41.184Z,1.20
2022-11-24T10:59:25.080Z,1.40
2022-11-24T11:01:02.546Z,1.10
2022-11-24T11:02:43.043Z,1.60
2022-11-24T11:04:27.193Z,1.40
2022-11-24T11:06:21.072Z,1.30
2022-11-24T11:08:26.523Z,1.00
2022-11-24T11:10:23.623Z,1.00
2022-11-24T11:11:56.851Z,1.10
2022-11-24T11:13:32.462Z,1.50
2022-11-24T11:15:28.703Z,1.60
2022-11-24T11:17:00.641Z,1.60
2022-11-24T11:18:34.236Z,1.10
2022-11-24T11:20:19.463Z,1.40
2022-11-24T11:22:02.994Z,1.20
2022-11-24T11:23:37.002Z,1.40
2022-11-24T11:25:11.420Z,1.30
2022-11-24T11:26:43.874Z,1.30
2022-11-24T11:28:18.900Z,1.50
2022-11-24T11:34:23.273Z,1.30
2022-11-24T11:36:01.624Z,1.70
2022-11-24T11:37:34.166Z,1.40
2022-11-24T11:39:06.426Z,1.30
2022-11-24T11:40:42.733Z,1.30
2022-11-24T11:42:53.627Z,1.60
2022-11-24T11:44:59.629Z,1.40
2022-11-24T11:46:33.040Z,1.50
2022-11-24T11:48:27.138Z,1.30
2022-11-24T11:49:59.107Z,1.70
2022-11-24T11:52:19.823Z,1.30
2022-11-24T11:54:25.702Z,1.20
2022-11-24T11:56:14.758Z,2.10
2022-11-24T11:58:08.347Z,1.40
2022-11-24T12:00:04.978Z,1.00
2022-11-24T12:02:00.005Z,1.70
2022-11-24T12:03:41.107Z,1.30
2022-11-24T12:05:30.082Z,1.70
2022-11-24T12:07:28.296Z,1.80
2022-11-24T12:09:21.470Z,2.00
2022-11-24T12:11:12.365Z,1.90
2022-11-24T12:13:02.791Z,1.50
2022-11-24T12:15:11.197Z,1.30
2022-11-24T12:17:12.271Z,1.70
2022-11-24T12:19:10.477Z,1.40
2022-11-24T12:21:01.672Z,1.20
2022-11-24T12:23:02.960Z,1.30
2022-11-24T12:25:02.778Z,1.40
2022-11-24T12:26:46.588Z,1.80
2022-11-24T12:28:26.327Z,1.90
2022-11-24T12:30:13.691Z,5.80
2022-11-24T12:32:31.951Z,1.70
2022-11-24T13:47:57.870Z,2.40
2022-11-24T13:49:41.027Z,1.30
2022-11-24T13:51:24.006Z,1.40
2022-11-24T13:53:15.740Z,1.20
2022-11-24T13:54:47.972Z,0.80
2022-11-24T13:56:22.298Z,0.90
2022-11-24T13:58:27.436Z,0.80
2022-11-24T14:00:04.693Z,1.10
2022-11-24T14:01:40.849Z,1.30
2022-11-24T14:03:28.964Z,1.40
2022-11-24T14:05:00.741Z,1.10
2022-11-24T14:07:09.095Z,1.20
2022-11-24T14:08:41.496Z,1.30
2022-11-24T14:10:21.274Z,1.60
2022-11-24T14:12:06.312Z,1.10
2022-11-24T14:13:38.088Z,1.60
2022-11-24T14:15:29.456Z,1.40
2022-11-24T14:17:29.018Z,1.40
2022-11-24T14:19:10.701Z,1.20
2022-11-24T14:20:42.857Z,0.80
2022-11-24T14:22:32.548Z,1.40
2022-11-24T14:24:38.230Z,1.20
2022-11-24T14:26:36.652Z,1.40
2022-11-24T14:28:25.994Z,1.70
2022-11-24T14:29:57.867Z,0.80
2022-11-24T14:31:29.832Z,0.70
2022-11-24T14:33:04.005Z,0.90
2022-11-24T14:34:36.226Z,1.10
2022-11-24T14:36:15.811Z,1.30
2022-11-24T14:37:48.720Z,1.30
2022-11-24T14:39:26.681Z,1.00
2022-11-24T14:41:25.480Z,1.50
2022-11-24T14:42:57.839Z,1.40
2022-11-24T14:44:44.434Z,1.20
2022-11-24T14:46:20.999Z,1.30
2022-11-24T14:47:53.420Z,1.70
2022-11-24T14:49:25.351Z,1.40
2022-11-24T14:51:34.799Z,1.50
2022-11-24T14:53:15.157Z,1.30
2022-11-24T14:55:17.371Z,0.80
2022-11-24T14:57:04.430Z,1.10
2022-11-24T14:58:42.033Z,1.30
2022-11-24T15:00:17.581Z,1.60
2022-11-24T15:01:49.528Z,1.30
2022-11-24T15:03:21.554Z,1.60
2022-11-24T15:05:03.336Z,1.80
2022-11-24T15:06:35.930Z,1.00
2022-11-24T15:08:13.463Z,1.60
2022-11-24T15:09:48.119Z,1.80
2022-11-24T15:11:20.498Z,1.10
2022-11-24T15:12:59.262Z,1.00
2022-11-24T15:14:54.611Z,0.90
2022-11-24T15:16:30.052Z,1.00
2022-11-24T15:18:04.900Z,1.50
2022-11-24T15:19:36.771Z,1.50
2022-11-24T15:21:14.157Z,1.50
2022-11-24T15:22:52.548Z,1.70
2022-11-24T15:24:25.041Z,1.40
2022-11-24T15:25:57.729Z,1.40
2022-11-24T15:27:30.432Z,1.80
2022-11-24T15:29:02.739Z,1.70
2022-11-24T15:30:37.865Z,1.20
2022-11-24T15:32:16.781Z,1.40
2022-11-24T15:33:48.644Z,1.80
2022-11-24T15:35:22.666Z,1.50
2022-11-24T15:36:55.390Z,1.40
2022-11-24T15:38:28.366Z,1.70
2022-11-24T15:40:00.169Z,2.40
2022-11-24T15:41:33.688Z,1.90
2022-11-24T15:43:40.355Z,2.20
2022-11-24T15:45:12.502Z,1.70
2022-11-24T15:46:44.395Z,1.90
2022-11-24T15:48:18.120Z,1.80
2022-11-24T15:49:50.427Z,1.40
2022-11-24T15:51:26.227Z,1.90
2022-11-24T15:52:58.214Z,1.90
2022-11-24T15:54:32.571Z,1.90
2022-11-24T15:56:14.078Z,2.40
2022-11-24T15:57:45.915Z,2.50
2022-11-24T15:59:20.757Z,2.50
2022-11-24T16:00:53.707Z,2.70
2022-11-24T16:02:26.201Z,2.30
2022-11-24T16:03:57.953Z,2.00
2022-11-24T16:05:30.643Z,1.90
2022-11-24T16:07:03.780Z,3.00
2022-11-24T16:08:35.497Z,2.40
2022-11-24T16:10:19.255Z,2.10
2022-11-24T16:11:50.947Z,1.90
2022-11-24T16:13:22.647Z,2.10
2022-11-24T16:14:54.281Z,2.20
2022-11-24T16:16:26.214Z,2.30
2022-11-24T16:17:58.058Z,2.10
2022-11-24T16:19:29.814Z,2.50
2022-11-24T16:21:01.519Z,2.60
2022-11-24T16:22:33.301Z,2.50
2022-11-24T16:24:05.380Z,2.60
2022-11-24T16:25:37.127Z,2.70
2022-11-24T16:27:09.288Z,4.20
2022-11-24T16:28:41.997Z,2.50
2022-11-24T16:30:14.274Z,2.50
2022-11-24T16:31:47.236Z,2.70
2022-11-24T16:33:19.035Z,2.20
2022-11-24T16:34:50.789Z,2.40
2022-11-24T16:36:22.607Z,3.00
2022-11-24T16:37:54.306Z,2.10
2022-11-24T16:39:26.049Z,2.20
2022-11-24T16:40:58.434Z,2.10
2022-11-24T16:42:30.768Z,2.20
2022-11-24T16:44:04.130Z,2.80
2022-11-24T16:45:39.609Z,2.30
2022-11-24T16:47:14.089Z,2.70
2022-11-24T16:48:48.884Z,2.70
2022-11-24T16:50:20.867Z,3.10
2022-11-24T16:51:52.788Z,11.90
2022-11-24T16:53:24.852Z,21.50
2022-11-24T16:54:56.643Z,5.00
2022-11-24T16:56:30.527Z,5.80
2022-11-24T16:58:05.107Z,8.00
2022-11-24T16:59:38.405Z,4.20
2022-11-24T17:01:13.987Z,4.00
2022-11-24T17:02:46.497Z,4.20
2022-11-24T17:04:18.458Z,7.70
2022-11-24T17:05:58.086Z,6.90
2022-11-24T17:07:30.299Z,5.40
2022-11-24T17:09:02.118Z,3.50
2022-11-24T17:10:38.344Z,3.00
2022-11-24T17:12:10.763Z,3.20
2022-11-24T17:13:45.652Z,2.70
2022-11-24T17:15:32.558Z,2.90
2022-11-24T17:17:05.698Z,3.10
2022-11-24T17:18:38.902Z,3.80
2022-11-24T17:20:11.732Z,3.20
2022-11-24T17:21:43.457Z,3.00
2022-11-24T17:23:15.884Z,3.00
2022-11-24T17:24:47.603Z,3.40
2022-11-24T17:26:19.665Z,3.60
2022-11-24T17:27:51.678Z,3.40
2022-11-24T17:29:23.463Z,3.00
2022-11-24T17:30:55.921Z,3.20
2022-11-24T17:32:27.679Z,3.80
2022-11-24T17:34:00.807Z,3.50
2022-11-24T17:35:35.970Z,3.50
2022-11-24T17:37:08.021Z,3.10
2022-11-24T17:38:39.865Z,2.90
2022-11-24T17:40:28.371Z,2.70
2022-11-24T17:42:00.822Z,2.70
2022-11-24T17:43:33.610Z,2.60
2022-11-24T17:45:06.005Z,2.20
2022-11-24T17:46:39.305Z,2.30
2022-11-24T17:48:11.226Z,1.60
2022-11-24T17:49:43.055Z,2.20
2022-11-24T17:51:18.672Z,2.10
2022-11-24T17:52:50.659Z,2.00
2022-11-24T17:54:45.257Z,2.00
2022-11-24T17:56:18.374Z,1.30
2022-11-24T17:57:50.655Z,2.00
2022-11-24T17:59:22.994Z,1.90
2022-11-24T18:00:55.075Z,1.80
2022-11-24T18:02:27.760Z,1.70
2022-11-24T18:03:59.731Z,1.80
2022-11-24T18:05:36.113Z,1.50
2022-11-24T18:07:08.663Z,1.90
2022-11-24T18:08:44.940Z,1.20
2022-11-24T18:10:16.786Z,1.10
2022-11-24T18:11:48.522Z,1.70
2022-11-24T18:13:48.353Z,1.50
2022-11-24T18:15:12.093Z,1.30
2022-11-24T18:16:43.891Z,1.30
2022-11-24T18:18:15.598Z,1.60
2022-11-24T18:19:47.364Z,1.40
2022-11-24T18:21:19.122Z,1.30
2022-11-24T18:23:05.181Z,1.20
2022-11-24T18:24:39.037Z,1.20
2022-11-24T18:26:14.875Z,1.30
2022-11-24T18:27:46.669Z,1.30
2022-11-24T18:29:18.414Z,1.70
2022-11-24T18:32:22.947Z,1.00
2022-11-24T18:33:55.312Z,1.40
2022-11-24T18:35:27.117Z,0.60
2022-11-24T18:36:58.830Z,1.20
2022-11-24T18:38:31.997Z,1.40
2022-11-24T18:40:04.276Z,1.90
2022-11-24T18:41:36.620Z,1.30
2022-11-24T18:43:08.419Z,1.50
2022-11-24T18:44:42.281Z,1.40
2022-11-24T18:46:17.341Z,1.40
2022-11-24T18:47:49.953Z,1.20
2022-11-24T18:49:21.707Z,1.10
2022-11-24T18:50:56.152Z,4.40
2022-11-24T18:52:27.873Z,1.80
2022-11-24T18:54:00.035Z,1.50
2022-11-24T18:55:32.366Z,1.40
2022-11-24T18:58:19.790Z,1.60
2022-11-24T18:59:51.777Z,1.30
2022-11-24T19:01:29.071Z,1.00
2022-11-24T19:03:01.008Z,1.40
2022-11-24T19:04:33.479Z,1.10
2022-11-24T19:06:08.167Z,0.90
2022-11-24T19:07:40.064Z,1.70
2022-11-24T19:09:16.014Z,1.30
2022-11-24T19:10:49.471Z,1.40
2022-11-24T19:12:21.408Z,1.10
2022-11-24T19:13:53.448Z,1.10
2022-11-24T19:15:25.210Z,1.30
2022-11-24T19:16:57.032Z,1.30
2022-11-24T19:18:31.902Z,1.30
2022-11-24T19:20:04.029Z,1.10
2022-11-24T19:21:39.556Z,1.00
2022-11-24T19:23:11.688Z,1.00
2022-11-24T19:24:46.583Z,1.30
2022-11-24T19:26:19.654Z,1.40
2022-11-24T19:27:51.382Z,1.10
2022-11-24T19:29:23.180Z,1.00
2022-11-24T19:31:04.365Z,1.30
2022-11-24T19:32:36.431Z,1.10
2022-11-24T19:34:09.998Z,1.30
2022-11-24T19:35:41.818Z,1.20
2022-11-24T19:37:13.993Z,1.00
2022-11-24T19:38:57.864Z,1.10
2022-11-24T19:40:29.679Z,1.10
2022-11-24T19:42:01.653Z,1.20
2022-11-24T19:43:34.533Z,1.30
2022-11-24T19:45:07.535Z,1.10
2022-11-24T19:46:40.883Z,1.50
2022-11-24T19:48:12.804Z,1.40
2022-11-24T19:49:44.658Z,1.50
2022-11-24T19:51:20.486Z,1.30
2022-11-24T19:52:53.545Z,1.50
2022-11-24T19:54:25.355Z,1.30
2022-11-24T19:56:05.891Z,1.80
2022-11-24T19:57:38.158Z,1.30
2022-11-24T19:59:15.861Z,1.40
2022-11-24T20:00:48.584Z,1.30
2022-11-24T20:02:20.434Z,1.50
2022-11-24T20:03:59.397Z,1.10
2022-11-24T20:05:31.422Z,1.50
2022-11-24T20:07:03.180Z,1.20
2022-11-24T20:08:37.750Z,1.40
2022-11-24T20:10:10.053Z,1.50
2022-11-24T20:11:42.643Z,1.40
2022-11-24T20:13:14.465Z,1.20
2022-11-24T20:14:46.270Z,1.70
2022-11-24T20:16:26.262Z,1.40
2022-11-24T20:17:59.044Z,2.10
2022-11-24T20:19:33.164Z,2.00
2022-11-24T20:21:09.030Z,1.40
2022-11-24T20:22:40.858Z,1.40
2022-11-24T20:24:22.213Z,1.30
2022-11-24T20:25:54.034Z,1.20
2022-11-24T20:27:25.999Z,1.30
2022-11-24T20:28:59.842Z,1.30
2022-11-24T20:30:32.839Z,1.80
2022-11-24T20:32:04.773Z,1.30
2022-11-24T20:33:37.149Z,1.00
2022-11-24T20:35:15.023Z,1.30
2022-11-24T20:36:52.817Z,1.30
2022-11-24T20:38:24.714Z,1.10
2022-11-24T20:39:59.071Z,1.60
2022-11-24T20:42:02.934Z,1.30
2022-11-24T20:43:35.613Z,1.40
2022-11-24T20:45:08.188Z,1.60
2022-11-24T20:46:42.194Z,1.30
2022-11-24T20:48:13.953Z,1.60
2022-11-24T20:49:45.744Z,1.20
2022-11-24T20:51:22.330Z,1.50
2022-11-24T20:52:54.058Z,1.50
2022-11-24T20:54:26.384Z,1.70
2022-11-24T20:56:07.731Z,1.40
2022-11-24T20:57:39.466Z,1.80
2022-11-24T20:59:15.844Z,1.60
2022-11-24T21:00:47.662Z,1.70
2022-11-24T21:02:21.216Z,1.80
2022-11-24T21:03:58.342Z,1.60
2022-11-24T21:05:30.036Z,1.30
2022-11-24T21:07:01.891Z,2.00
2022-11-24T21:08:36.698Z,1.40
2022-11-24T21:10:08.718Z,1.50
2022-11-24T21:11:41.933Z,1.60
2022-11-24T21:13:13.806Z,1.50
2022-11-24T21:14:45.602Z,1.50
2022-11-24T21:16:28.253Z,1.10
2022-11-24T21:18:00.009Z,0.90
2022-11-24T21:19:31.810Z,1.40
2022-11-24T21:21:03.671Z,1.30
2022-11-24T21:22:35.523Z,1.60
2022-11-24T21:24:15.964Z,1.60
2022-11-24T21:25:47.835Z,2.10
2022-11-24T21:27:19.591Z,1.40
2022-11-24T21:28:52.035Z,1.90
2022-11-24T21:30:25.594Z,1.60
2022-11-24T21:31:57.450Z,1.40
2022-11-24T21:33:29.263Z,1.20
2022-11-24T21:35:01.110Z,1.20
2022-11-24T21:36:34.961Z,1.00
2022-11-24T21:38:06.675Z,1.40
2022-11-24T21:39:38.443Z,1.50
2022-11-24T21:41:13.932Z,1.10
2022-11-24T21:42:45.804Z,1.30
2022-11-24T21:44:17.655Z,1.20
2022-11-24T21:45:49.445Z,1.20
2022-11-24T21:47:21.217Z,1.40
2022-11-24T21:48:54.077Z,1.40
2022-11-24T21:50:26.016Z,1.20
2022-11-24T21:51:57.827Z,1.90
2022-11-24T21:53:37.803Z,1.40
2022-11-24T21:55:09.714Z,1.70
2022-11-24T21:56:41.440Z,1.50
2022-11-24T21:58:13.886Z,1.10
2022-11-24T21:59:45.685Z,1.00
2022-11-24T22:01:20.840Z,0.80
2022-11-24T22:02:54.797Z,1.10
2022-11-24T22:04:26.737Z,1.40
2022-11-24T22:06:00.702Z,1.30
2022-11-24T22:07:32.822Z,1.20
2022-11-24T22:09:05.021Z,1.40
2022-11-24T22:10:37.009Z,1.20
2022-11-24T22:12:09.988Z,1.40
2022-11-24T22:13:43.961Z,1.20
2022-11-24T22:15:18.123Z,1.10
2022-11-24T22:16:50.261Z,1.40
2022-11-24T22:18:22.279Z,1.70
2022-11-24T22:19:55.098Z,1.60
2022-11-24T22:21:33.487Z,1.00
2022-11-24T22:23:05.439Z,1.10
2022-11-24T22:24:37.676Z,1.20
2022-11-24T22:26:19.696Z,1.80
2022-11-24T22:27:51.550Z,1.40
2022-11-24T22:29:23.587Z,1.20
2022-11-24T22:30:55.543Z,1.50
2022-11-24T22:32:27.397Z,0.60
2022-11-24T22:34:01.254Z,1.60
2022-11-24T22:35:33.220Z,1.30
2022-11-24T22:37:05.127Z,1.60
2022-11-24T22:38:37.458Z,1.20
2022-11-24T22:40:09.649Z,1.20
2022-11-24T22:41:41.627Z,1.00
2022-11-24T22:43:15.097Z,1.90
2022-11-24T22:44:50.407Z,1.90
2022-11-24T22:46:27.210Z,1.20
2022-11-24T22:47:59.572Z,1.40
2022-11-24T22:49:31.514Z,1.40
2022-11-24T22:51:07.527Z,1.10
2022-11-24T22:52:40.507Z,1.30
2022-11-24T22:54:14.502Z,1.60
2022-11-24T22:55:46.231Z,1.40
2022-11-24T22:57:17.975Z,1.50
2022-11-24T22:58:52.235Z,1.40
2022-11-24T23:00:24.169Z,1.20
2022-11-24T23:01:55.889Z,1.00
2022-11-24T23:03:27.802Z,0.80
2022-11-24T23:04:59.854Z,1.00
2022-11-24T23:06:33.813Z,1.50
2022-11-24T23:08:08.948Z,1.60
2022-11-24T23:09:41.127Z,1.10
2022-11-24T23:11:17.787Z,1.80
2022-11-24T23:12:50.045Z,1.50
2022-11-24T23:14:21.902Z,1.30
2022-11-24T23:15:53.777Z,1.20
2022-11-24T23:17:25.559Z,1.10
2022-11-24T23:18:58.077Z,1.30
2022-11-24T23:20:29.884Z,1.20
2022-11-24T23:22:01.677Z,1.30
2022-11-24T23:23:34.737Z,1.20
2022-11-24T23:25:07.048Z,1.00
2022-11-24T23:26:41.457Z,1.50
2022-11-24T23:28:13.692Z,1.20
2022-11-24T23:29:45.467Z,1.10
2022-11-24T23:31:21.526Z,0.90
2022-11-24T23:32:54.367Z,1.30
2022-11-24T23:34:26.359Z,1.00
2022-11-24T23:36:09.379Z,1.00
2022-11-24T23:38:06.111Z,1.00
2022-11-24T23:39:33.975Z,0.90
2022-11-24T23:41:11.687Z,1.20
2022-11-24T23:42:47.895Z,1.00
2022-11-24T23:44:20.817Z,0.90
2022-11-24T23:45:53.522Z,1.10
2022-11-24T23:47:26.727Z,1.40
2022-11-24T23:48:59.611Z,1.50
2022-11-24T23:50:31.452Z,1.10
2022-11-24T23:52:03.375Z,1.60
2022-11-24T23:53:37.036Z,0.80
2022-11-24T23:55:09.098Z,0.80
2022-11-24T23:56:40.881Z,1.20
2022-11-24T23:58:12.650Z,0.80
2022-11-24T23:59:45.037Z,0.80
